createdAt,value
2018-07-23T00:00:44.174Z,2.60
2018-07-23T00:03:12.516Z,2.47
2018-07-23T00:05:40.843Z,2.30
2018-07-23T00:08:09.191Z,2.33
2018-07-23T00:10:37.257Z,2.70
2018-07-23T00:13:08.713Z,2.23
2018-07-23T00:15:37.034Z,2.17
2018-07-23T00:18:05.365Z,2.30
2018-07-23T00:20:33.676Z,2.30
2018-07-23T00:23:02.056Z,2.83
2018-07-23T00:25:30.393Z,2.60
2018-07-23T00:27:58.780Z,2.40
2018-07-23T00:30:27.156Z,2.57
2018-07-23T00:32:55.481Z,2.13
2018-07-23T00:35:23.857Z,2.53
2018-07-23T00:37:51.933Z,2.10
2018-07-23T00:40:20.246Z,2.20
2018-07-23T00:42:48.606Z,2.27
2018-07-23T00:45:16.886Z,2.03
2018-07-23T00:47:45.253Z,2.00
2018-07-23T00:50:13.736Z,2.20
2018-07-23T00:52:42.032Z,2.40
2018-07-23T00:55:12.356Z,2.44
2018-07-23T00:57:40.646Z,2.50
2018-07-23T01:00:09.058Z,2.50
2018-07-23T01:02:37.472Z,2.50
2018-07-23T01:05:10.303Z,2.53
2018-07-23T01:07:38.658Z,2.80
2018-07-23T01:10:06.998Z,2.50
2018-07-23T01:12:35.858Z,2.97
2018-07-23T01:15:04.573Z,2.70
2018-07-23T01:17:32.907Z,2.40
2018-07-23T01:20:01.308Z,2.40
2018-07-23T01:22:29.684Z,2.37
2018-07-23T01:24:58.694Z,2.23
2018-07-23T01:27:27.020Z,2.20
2018-07-23T01:29:55.975Z,2.40
2018-07-23T01:32:24.348Z,2.50
2018-07-23T01:34:52.685Z,2.40
2018-07-23T01:37:20.804Z,2.57
2018-07-23T01:39:49.147Z,2.23
2018-07-23T01:42:17.434Z,2.57
2018-07-23T01:44:45.748Z,2.27
2018-07-23T01:47:14.093Z,2.70
2018-07-23T01:49:42.432Z,2.30
2018-07-23T01:52:11.106Z,2.37
2018-07-23T01:54:39.446Z,2.17
2018-07-23T01:57:11.939Z,2.67
2018-07-23T01:59:40.325Z,2.47
2018-07-23T02:02:08.738Z,2.50
2018-07-23T02:04:38.363Z,2.37
2018-07-23T02:07:11.163Z,2.07
2018-07-23T02:09:39.509Z,2.47
2018-07-23T02:12:07.851Z,2.57
2018-07-23T02:14:36.182Z,2.50
2018-07-23T02:17:04.487Z,2.77
2018-07-23T02:19:32.800Z,2.60
2018-07-23T02:22:01.136Z,2.27
2018-07-23T02:24:29.476Z,2.73
2018-07-23T02:26:57.768Z,3.00
2018-07-23T02:29:27.269Z,3.10
2018-07-23T02:31:55.623Z,2.97
2018-07-23T02:34:23.922Z,2.87
2018-07-23T02:36:52.292Z,2.90
2018-07-23T02:39:20.613Z,3.30
2018-07-23T02:41:48.928Z,3.17
2018-07-23T02:44:17.264Z,2.93
2018-07-23T02:46:45.617Z,3.27
2018-07-23T02:49:16.181Z,3.20
2018-07-23T02:51:44.491Z,3.13
2018-07-23T02:54:12.568Z,2.43
2018-07-23T02:56:40.616Z,2.70
2018-07-23T02:59:08.954Z,2.80
2018-07-23T03:01:37.318Z,2.80
2018-07-23T03:04:05.660Z,2.67
2018-07-23T03:06:33.965Z,2.60
2018-07-23T03:09:02.286Z,3.20
2018-07-23T03:11:30.591Z,2.73
2018-07-23T03:13:58.969Z,2.77
2018-07-23T03:16:27.350Z,3.23
2018-07-23T03:18:55.676Z,3.00
2018-07-23T03:21:23.963Z,3.30
2018-07-23T03:23:52.313Z,2.73
2018-07-23T03:26:20.661Z,2.70
2018-07-23T03:28:48.984Z,2.97
2018-07-23T03:31:17.347Z,3.17
2018-07-23T03:33:45.698Z,2.80
2018-07-23T03:36:13.981Z,3.50
2018-07-23T03:38:42.365Z,3.07
2018-07-23T03:41:10.699Z,3.33
2018-07-23T03:43:39.072Z,2.97
2018-07-23T03:46:07.452Z,3.33
2018-07-23T03:48:35.850Z,3.10
2018-07-23T03:51:04.219Z,3.57
2018-07-23T03:53:32.541Z,3.57
2018-07-23T03:56:00.928Z,3.63
2018-07-23T03:58:29.267Z,3.57
2018-07-23T04:00:57.764Z,3.80
2018-07-23T04:03:26.132Z,3.53
2018-07-23T04:05:54.479Z,3.60
2018-07-23T04:08:22.827Z,3.70
2018-07-23T04:10:51.204Z,3.70
2018-07-23T04:13:20.028Z,3.47
2018-07-23T04:15:48.395Z,3.00
2018-07-23T04:18:16.725Z,3.90
2018-07-23T04:20:45.022Z,3.13
2018-07-23T04:23:15.684Z,4.10
2018-07-23T04:25:43.970Z,3.63
2018-07-23T04:28:12.305Z,3.87
2018-07-23T04:30:40.657Z,3.97
2018-07-23T04:33:08.726Z,3.50
2018-07-23T04:35:37.085Z,3.73
2018-07-23T04:38:05.404Z,3.97
2018-07-23T04:40:33.442Z,3.93
2018-07-23T04:43:01.808Z,3.70
2018-07-23T04:45:30.167Z,3.97
2018-07-23T04:47:58.514Z,3.83
2018-07-23T04:50:26.594Z,3.83
2018-07-23T04:52:54.654Z,4.50
2018-07-23T04:55:22.991Z,4.03
2018-07-23T04:57:51.266Z,4.57
2018-07-23T05:00:19.599Z,4.13
2018-07-23T05:02:47.927Z,4.10
2018-07-23T05:05:20.730Z,3.77
2018-07-23T05:07:49.069Z,3.67
2018-07-23T05:10:17.349Z,4.37
2018-07-23T05:12:45.695Z,3.97
2018-07-23T05:15:13.773Z,3.97
2018-07-23T05:17:42.135Z,4.40
2018-07-23T05:20:10.462Z,3.67
2018-07-23T05:22:38.742Z,3.97
2018-07-23T05:25:07.128Z,4.13
2018-07-23T05:27:35.429Z,4.00
2018-07-23T05:30:03.813Z,3.87
2018-07-23T05:32:32.149Z,4.23
2018-07-23T05:35:00.495Z,4.33
2018-07-23T05:37:28.840Z,4.33
2018-07-23T05:39:57.144Z,4.70
2018-07-23T05:42:25.486Z,4.57
2018-07-23T05:44:53.879Z,4.40
2018-07-23T05:47:24.487Z,4.53
2018-07-23T05:49:52.803Z,4.00
2018-07-23T05:52:21.115Z,4.60
2018-07-23T05:54:49.457Z,4.50
2018-07-23T05:57:20.057Z,5.17
2018-07-23T05:59:50.444Z,5.23
2018-07-23T06:02:18.845Z,5.83
2018-07-23T06:04:47.151Z,5.70
2018-07-23T06:07:15.463Z,4.93
2018-07-23T06:09:43.892Z,5.60
2018-07-23T06:12:12.227Z,5.73
2018-07-23T06:14:40.526Z,5.43
2018-07-23T06:17:08.965Z,5.27
2018-07-23T06:19:37.293Z,5.30
2018-07-23T06:22:05.743Z,6.43
2018-07-23T06:24:34.090Z,5.50
2018-07-23T06:27:02.106Z,5.20
2018-07-23T06:29:32.748Z,5.70
2018-07-23T06:32:01.144Z,5.60
2018-07-23T06:34:29.504Z,5.67
2018-07-23T06:36:57.863Z,5.97
2018-07-23T06:39:27.061Z,4.93
2018-07-23T06:41:55.506Z,5.03
2018-07-23T06:44:23.854Z,5.70
2018-07-23T06:46:52.168Z,6.10
2018-07-23T06:49:24.932Z,5.80
2018-07-23T06:51:53.240Z,5.63
2018-07-23T06:54:21.593Z,6.00
2018-07-23T06:56:49.913Z,5.50
2018-07-23T06:59:18.327Z,5.50
2018-07-23T07:01:46.649Z,5.50
2018-07-23T07:04:14.978Z,5.30
2018-07-23T07:06:43.346Z,5.37
2018-07-23T07:09:11.683Z,5.57
2018-07-23T07:11:40.063Z,5.93
2018-07-23T07:14:08.646Z,5.77
2018-07-23T07:16:37.005Z,6.13
2018-07-23T07:19:05.390Z,5.13
2018-07-23T07:21:33.741Z,6.27
2018-07-23T07:24:02.090Z,5.90
2018-07-23T07:26:30.445Z,5.67
2018-07-23T07:28:58.806Z,5.37
2018-07-23T07:31:29.720Z,5.77
2018-07-23T07:33:57.742Z,5.43
2018-07-23T07:36:26.095Z,5.33
2018-07-23T07:38:54.387Z,5.00
2018-07-23T07:41:25.401Z,5.20
2018-07-23T07:43:55.997Z,5.13
2018-07-23T07:46:27.329Z,5.43
2018-07-23T07:48:55.635Z,5.37
2018-07-23T07:51:28.086Z,5.37
2018-07-23T07:53:56.526Z,5.30
2018-07-23T07:56:24.823Z,4.80
2018-07-23T07:58:53.272Z,5.10
2018-07-23T08:01:21.592Z,5.63
2018-07-23T08:03:50.036Z,4.70
2018-07-23T08:06:18.090Z,4.67
2018-07-23T08:08:46.437Z,5.80
2018-07-23T08:11:14.739Z,4.80
2018-07-23T08:13:43.072Z,6.00
2018-07-23T08:16:11.837Z,5.60
2018-07-23T08:18:40.229Z,5.30
2018-07-23T08:21:08.531Z,5.70
2018-07-23T08:23:36.853Z,5.50
2018-07-23T08:26:05.219Z,4.93
2018-07-23T08:28:33.559Z,5.13
2018-07-23T08:31:01.967Z,4.50
2018-07-23T08:33:33.370Z,4.43
2018-07-23T08:36:01.856Z,4.77
2018-07-23T08:38:30.329Z,5.23
2018-07-23T08:40:58.807Z,6.30
2018-07-23T08:43:31.201Z,5.53
2018-07-23T08:45:59.554Z,4.93
2018-07-23T08:48:27.955Z,4.97
2018-07-23T08:50:56.262Z,5.77
2018-07-23T08:53:24.316Z,4.33
2018-07-23T08:55:52.659Z,4.37
2018-07-23T08:58:21.191Z,4.47
2018-07-23T09:00:49.263Z,4.97
2018-07-23T09:03:17.335Z,4.60
2018-07-23T09:05:45.393Z,4.30
2018-07-23T09:08:13.714Z,5.33
2018-07-23T09:10:42.065Z,4.27
2018-07-23T09:13:10.419Z,4.57
2018-07-23T09:15:38.738Z,4.87
2018-07-23T09:18:07.056Z,4.87
2018-07-23T09:20:35.369Z,4.80
2018-07-23T09:23:03.794Z,4.60
2018-07-23T09:25:40.931Z,3.53
2018-07-23T09:28:09.275Z,4.10
2018-07-23T09:30:43.047Z,3.53
2018-07-23T09:33:11.126Z,4.20
2018-07-23T09:35:39.163Z,4.53
2018-07-23T09:38:07.610Z,3.50
2018-07-23T09:40:35.978Z,3.53
2018-07-23T09:43:04.667Z,4.00
2018-07-23T09:45:35.872Z,3.50
2018-07-23T09:48:04.145Z,3.50
2018-07-23T09:50:32.523Z,3.40
2018-07-23T09:53:00.824Z,3.53
2018-07-23T09:55:29.174Z,3.43
2018-07-23T09:57:57.506Z,3.83
2018-07-23T10:00:31.092Z,4.23
2018-07-23T10:02:59.401Z,4.20
2018-07-23T10:05:27.728Z,4.70
2018-07-23T10:07:56.087Z,3.63
2018-07-23T10:10:24.394Z,3.73
2018-07-23T10:12:52.847Z,3.70
2018-07-23T10:15:21.130Z,4.43
2018-07-23T10:17:49.446Z,4.17
2018-07-23T10:20:17.802Z,4.43
2018-07-23T10:22:46.115Z,4.43
2018-07-23T10:25:14.451Z,5.27
2018-07-23T10:27:42.800Z,4.80
2018-07-23T10:30:11.218Z,5.80
2018-07-23T10:32:39.583Z,5.03
2018-07-23T10:35:08.280Z,4.35
2018-07-23T10:37:39.111Z,3.87
2018-07-23T10:40:08.389Z,4.03
2018-07-23T10:42:36.738Z,3.70
2018-07-23T10:45:05.450Z,3.97
2018-07-23T10:47:38.139Z,4.03
2018-07-23T10:50:06.503Z,4.17
2018-07-23T10:52:34.822Z,4.10
2018-07-23T10:55:03.191Z,4.60
2018-07-23T10:57:31.502Z,5.37
2018-07-23T10:59:59.798Z,4.40
2018-07-23T11:02:28.091Z,5.00
2018-07-23T11:04:56.429Z,4.30
2018-07-23T11:07:24.867Z,4.00
2018-07-23T11:09:52.884Z,3.73
2018-07-23T11:12:21.197Z,3.67
2018-07-23T11:14:49.704Z,3.33
2018-07-23T11:17:18.027Z,3.10
2018-07-23T11:19:46.377Z,2.93
2018-07-23T11:22:14.790Z,2.77
2018-07-23T11:24:45.621Z,3.00
2018-07-23T11:27:11.600Z,2.83
2018-07-23T11:29:41.974Z,3.20
2018-07-23T11:32:10.327Z,3.83
2018-07-23T11:34:38.677Z,3.63
2018-07-23T11:37:07.017Z,3.47
2018-07-23T11:39:39.806Z,3.00
2018-07-23T11:42:08.310Z,3.60
2018-07-23T11:44:36.646Z,3.37
2018-07-23T11:47:05.117Z,3.50
2018-07-23T11:49:33.423Z,3.07
2018-07-23T11:52:01.800Z,3.30
2018-07-23T11:54:30.157Z,2.80
2018-07-23T11:56:58.530Z,3.37
2018-07-23T11:59:28.895Z,3.43
2018-07-23T12:01:57.301Z,3.67
2018-07-23T12:04:25.754Z,3.67
2018-07-23T12:06:53.749Z,4.27
2018-07-23T12:09:22.081Z,3.60
2018-07-23T12:11:50.472Z,3.40
2018-07-23T12:14:18.827Z,3.50
2018-07-23T12:16:47.204Z,3.70
2018-07-23T12:19:15.530Z,3.13
2018-07-23T12:21:45.180Z,3.47
2018-07-23T12:24:13.535Z,3.50
2018-07-23T12:26:41.610Z,3.50
2018-07-23T12:29:09.922Z,3.83
2018-07-23T12:31:42.319Z,3.93
2018-07-23T12:34:10.636Z,3.73
2018-07-23T12:36:38.663Z,3.43
2018-07-23T12:39:09.103Z,3.47
2018-07-23T12:41:40.307Z,3.90
2018-07-23T12:44:10.588Z,3.97
2018-07-23T12:46:39.046Z,3.77
2018-07-23T12:49:07.637Z,3.40
2018-07-23T12:51:36.018Z,2.87
2018-07-23T12:54:04.451Z,2.93
2018-07-23T12:56:32.814Z,4.13
2018-07-23T12:59:01.115Z,4.60
2018-07-23T13:01:29.414Z,3.40
2018-07-23T13:03:57.785Z,4.63
2018-07-23T13:06:26.110Z,3.43
2018-07-23T13:08:54.424Z,3.83
2018-07-23T13:11:22.717Z,4.13
2018-07-23T13:13:51.104Z,4.07
2018-07-23T13:16:19.519Z,4.07
2018-07-23T13:18:47.874Z,4.33
2018-07-23T13:21:16.166Z,4.00
2018-07-23T13:23:48.105Z,3.90
2018-07-23T13:26:16.453Z,3.87
2018-07-23T13:28:44.797Z,3.90
2018-07-23T13:31:13.171Z,4.10
2018-07-23T13:33:46.052Z,3.73
2018-07-23T13:36:14.387Z,3.63
2018-07-23T13:38:42.455Z,3.80
2018-07-23T13:41:10.512Z,4.43
2018-07-23T13:43:38.852Z,4.47
2018-07-23T13:46:07.182Z,3.73
2018-07-23T13:48:35.571Z,4.60
2018-07-23T13:51:03.897Z,4.20
2018-07-23T13:53:32.275Z,3.73
2018-07-23T13:56:00.700Z,4.07
2018-07-23T13:58:29.070Z,3.77
2018-07-23T14:00:57.400Z,3.67
2018-07-23T14:03:25.747Z,3.83
2018-07-23T14:05:54.096Z,3.77
2018-07-23T14:08:22.402Z,3.50
2018-07-23T14:10:50.800Z,3.60
2018-07-23T14:13:19.116Z,4.10
2018-07-23T14:15:49.948Z,3.70
2018-07-23T14:18:18.286Z,3.73
2018-07-23T14:20:46.671Z,3.47
2018-07-23T14:23:15.011Z,3.67
2018-07-23T14:25:45.015Z,3.80
2018-07-23T14:28:14.847Z,3.30
2018-07-23T14:30:43.157Z,3.50
2018-07-23T14:33:11.484Z,3.20
2018-07-23T14:35:39.878Z,3.90
2018-07-23T14:38:08.222Z,3.40
2018-07-23T14:40:36.304Z,3.27
2018-07-23T14:43:04.380Z,3.17
2018-07-23T14:45:32.454Z,3.30
2018-07-23T14:48:00.495Z,3.50
2018-07-23T14:50:28.825Z,3.27
2018-07-23T14:52:57.174Z,3.07
2018-07-23T14:55:25.511Z,3.10
2018-07-23T14:57:53.844Z,3.53
2018-07-23T15:00:22.153Z,3.37
2018-07-23T15:02:50.481Z,3.20
2018-07-23T15:05:18.812Z,3.60
2018-07-23T15:07:50.963Z,3.50
2018-07-23T15:10:19.275Z,2.83
2018-07-23T15:12:47.645Z,3.33
2018-07-23T15:15:15.990Z,2.93
2018-07-23T15:17:44.108Z,3.53
2018-07-23T15:20:12.472Z,3.40
2018-07-23T15:22:40.791Z,3.27
2018-07-23T15:25:09.158Z,3.10
2018-07-23T15:27:37.533Z,2.77
2018-07-23T15:30:05.966Z,3.37
2018-07-23T15:32:34.357Z,3.20
2018-07-23T15:35:02.678Z,3.40
2018-07-23T15:37:30.985Z,3.13
2018-07-23T15:39:59.310Z,3.20
2018-07-23T15:42:27.769Z,3.20
2018-07-23T15:44:56.509Z,3.07
2018-07-23T15:47:24.487Z,3.27
2018-07-23T15:49:53.870Z,3.50
2018-07-23T15:52:22.235Z,3.10
2018-07-23T15:54:50.554Z,3.27
2018-07-23T15:57:18.904Z,2.77
2018-07-23T16:02:21.187Z,3.23
2018-07-23T16:04:49.551Z,2.70
2018-07-23T16:07:17.861Z,2.70
2018-07-23T16:09:46.143Z,2.57
2018-07-23T16:12:14.485Z,2.63
2018-07-23T16:14:42.793Z,3.20
2018-07-23T16:17:11.105Z,2.60
2018-07-23T16:19:39.528Z,2.73
2018-07-23T16:22:07.858Z,2.77
2018-07-23T16:24:36.186Z,2.90
2018-07-23T16:27:04.267Z,3.00
2018-07-23T16:29:33.734Z,2.80
2018-07-23T16:32:02.037Z,2.73
2018-07-23T16:34:30.682Z,2.60
2018-07-23T16:36:59.046Z,2.60
2018-07-23T16:39:27.426Z,2.70
2018-07-23T16:41:57.642Z,2.70
2018-07-23T16:44:25.983Z,2.37
2018-07-23T16:46:54.340Z,2.47
2018-07-23T16:49:22.630Z,2.87
2018-07-23T16:51:55.204Z,2.90
2018-07-23T16:54:23.523Z,2.90
2018-07-23T16:56:51.548Z,3.00
2018-07-23T16:59:20.623Z,2.93
2018-07-23T17:01:48.699Z,2.50
2018-07-23T17:04:17.028Z,2.40
2018-07-23T17:06:45.397Z,2.87
2018-07-23T17:09:13.715Z,3.00
2018-07-23T17:11:41.757Z,2.33
2018-07-23T17:14:10.057Z,2.70
2018-07-23T17:16:38.111Z,2.53
2018-07-23T17:19:06.498Z,2.60
2018-07-23T17:21:34.817Z,2.77
2018-07-23T17:24:03.250Z,2.63
2018-07-23T17:26:31.772Z,2.77
2018-07-23T17:29:00.181Z,2.40
2018-07-23T17:31:28.518Z,2.47
2018-07-23T17:33:59.501Z,2.43
2018-07-23T17:36:27.843Z,3.20
2018-07-23T17:38:56.152Z,2.83
2018-07-23T17:41:24.568Z,2.50
2018-07-23T17:43:52.908Z,2.47
2018-07-23T17:46:21.204Z,2.63
2018-07-23T17:48:49.532Z,2.83
2018-07-23T17:51:17.806Z,2.77
2018-07-23T17:53:46.205Z,2.90
2018-07-23T17:56:14.246Z,2.47
2018-07-23T17:58:42.630Z,2.83
2018-07-23T18:01:10.940Z,2.80
2018-07-23T18:03:39.263Z,2.80
2018-07-23T18:06:07.628Z,2.83
2018-07-23T18:08:35.933Z,2.90
2018-07-23T18:11:04.283Z,2.83
2018-07-23T18:13:32.601Z,3.00
2018-07-23T18:16:03.380Z,3.30
2018-07-23T18:18:31.710Z,2.60
2018-07-23T18:21:00.135Z,2.50
2018-07-23T18:23:28.440Z,2.97
2018-07-23T18:26:01.313Z,2.70
2018-07-23T18:28:29.621Z,2.70
2018-07-23T18:30:58.001Z,3.07
2018-07-23T18:33:26.455Z,2.90
2018-07-23T18:35:54.774Z,3.10
2018-07-23T18:38:23.113Z,3.07
2018-07-23T18:40:51.422Z,3.30
2018-07-23T18:43:19.750Z,2.93
2018-07-23T18:45:48.041Z,2.60
2018-07-23T18:49:29.826Z,2.67
2018-07-23T18:52:02.828Z,2.60
2018-07-23T18:54:31.996Z,2.73
2018-07-23T18:57:01.616Z,2.80
2018-07-23T18:59:32.078Z,2.87
2018-07-23T19:02:06.560Z,2.67
2018-07-23T19:04:34.953Z,3.07
2018-07-23T19:07:03.306Z,2.60
2018-07-23T19:09:31.816Z,2.37
2018-07-23T19:12:05.175Z,2.73
2018-07-23T19:14:33.492Z,2.87
2018-07-23T19:17:02.926Z,3.10
2018-07-23T19:19:31.264Z,2.90
2018-07-23T19:22:04.253Z,3.10
2018-07-23T19:24:32.543Z,3.10
2018-07-23T19:27:00.927Z,2.80
2018-07-23T19:29:30.919Z,2.73
2018-07-23T19:34:32.495Z,2.80
2018-07-23T19:37:00.781Z,2.70
2018-07-23T19:39:29.134Z,2.33
2018-07-23T19:41:57.167Z,2.87
2018-07-23T19:44:25.520Z,2.53
2018-07-23T19:46:53.874Z,2.80
2018-07-23T19:49:21.927Z,2.50
2018-07-23T19:51:50.242Z,2.63
2018-07-23T19:54:18.599Z,2.93
2018-07-23T19:56:46.626Z,2.57
2018-07-23T19:59:15.317Z,2.77
2018-07-23T20:01:43.470Z,2.73
2018-07-23T20:04:11.832Z,2.33
2018-07-23T20:06:40.210Z,2.90
2018-07-23T20:09:10.156Z,2.87
2018-07-23T20:11:38.195Z,2.70
2018-07-23T20:14:08.466Z,2.90
2018-07-23T20:16:36.830Z,2.60
2018-07-23T20:19:05.195Z,2.93
2018-07-23T20:21:33.545Z,2.80
2018-07-23T20:24:01.916Z,2.80
2018-07-23T20:26:30.244Z,3.00
2018-07-23T20:28:58.565Z,2.90
2018-07-23T20:31:26.864Z,2.97
2018-07-23T20:33:55.199Z,3.27
2018-07-23T20:36:23.579Z,2.93
2018-07-23T20:38:51.943Z,3.17
2018-07-23T20:41:20.267Z,3.10
2018-07-23T20:43:48.602Z,3.27
2018-07-23T20:46:16.684Z,3.07
2018-07-23T20:48:45.004Z,2.97
2018-07-23T20:51:13.331Z,3.13
2018-07-23T20:53:41.362Z,2.73
2018-07-23T20:56:11.580Z,3.17
2018-07-23T20:58:39.930Z,3.27
2018-07-23T21:01:08.323Z,2.93
2018-07-23T21:03:36.631Z,2.70
2018-07-23T21:06:07.009Z,3.00
2018-07-23T21:08:37.596Z,3.20
2018-07-23T21:11:05.994Z,3.17
2018-07-23T21:13:34.340Z,2.80
2018-07-23T21:16:02.695Z,3.27
2018-07-23T21:18:31.000Z,3.20
2018-07-23T21:20:59.324Z,3.27
2018-07-23T21:23:27.375Z,2.80
2018-07-23T21:25:55.662Z,3.10
2018-07-23T21:28:23.987Z,3.20
2018-07-23T21:30:52.317Z,3.37
2018-07-23T21:33:20.675Z,3.30
2018-07-23T21:35:49.070Z,3.37
2018-07-23T21:38:17.345Z,3.47
2018-07-23T21:40:45.674Z,3.23
2018-07-23T21:43:14.074Z,3.37
2018-07-23T21:45:42.450Z,3.47
2018-07-23T21:48:14.522Z,3.70
2018-07-23T21:50:42.880Z,3.10
2018-07-23T21:53:11.238Z,3.33
2018-07-23T21:55:39.563Z,3.07
2018-07-23T21:58:12.817Z,3.40
2018-07-23T22:00:41.250Z,3.10
2018-07-23T22:03:09.546Z,3.10
2018-07-23T22:05:37.938Z,3.20
2018-07-23T22:08:06.253Z,3.23
2018-07-23T22:10:34.660Z,2.97
2018-07-23T22:13:02.981Z,3.03
2018-07-23T22:15:31.360Z,3.23
2018-07-23T22:17:59.681Z,3.20
2018-07-23T22:20:27.993Z,2.90
2018-07-23T22:22:56.364Z,3.03
2018-07-23T22:25:24.750Z,3.30
2018-07-23T22:27:53.007Z,3.20
2018-07-23T22:30:21.129Z,3.10
2018-07-23T22:32:49.122Z,3.03
2018-07-23T22:35:17.441Z,2.70
2018-07-23T22:37:45.753Z,3.20
2018-07-23T22:40:15.579Z,3.40
2018-07-23T22:42:44.261Z,2.87
2018-07-23T22:45:12.591Z,3.20
2018-07-23T22:47:40.639Z,2.90
2018-07-23T22:50:13.482Z,3.40
2018-07-23T22:52:41.832Z,2.90
2018-07-23T22:55:09.836Z,3.30
2018-07-23T22:57:38.212Z,2.90
2018-07-23T23:00:06.584Z,3.30
2018-07-23T23:02:34.891Z,3.30
2018-07-23T23:05:03.310Z,3.57
2018-07-23T23:07:31.662Z,3.37
2018-07-23T23:09:59.996Z,3.33
2018-07-23T23:12:28.009Z,3.37
2018-07-23T23:14:56.285Z,2.53
2018-07-23T23:17:24.644Z,3.33
2018-07-23T23:19:52.975Z,3.10
2018-07-23T23:22:21.309Z,3.83
2018-07-23T23:24:49.713Z,3.80
2018-07-23T23:27:18.070Z,3.20
2018-07-23T23:29:57.654Z,3.60
2018-07-23T23:32:25.997Z,3.33
2018-07-23T23:34:54.330Z,3.50
2018-07-23T23:37:22.710Z,2.80
2018-07-23T23:39:51.136Z,3.43
2018-07-23T23:42:19.457Z,3.87
2018-07-23T23:44:47.885Z,3.03
2018-07-23T23:47:16.181Z,3.07
2018-07-23T23:49:44.458Z,3.40
2018-07-23T23:52:17.634Z,3.50
2018-07-23T23:54:45.706Z,3.37
2018-07-23T23:57:13.789Z,3.10
2018-07-23T23:59:42.415Z,3.27
